createdAt,value
2018-06-13T00:05:01.724Z,5.91
2018-06-13T00:10:56.699Z,11.6
2018-06-13T00:16:51.747Z,8.04
2018-06-13T00:22:46.728Z,11.29
2018-06-13T00:28:41.759Z,12.29
2018-06-13T00:34:36.829Z,13.97
2018-06-13T00:40:31.818Z,10.41
2018-06-13T00:46:26.735Z,16.07
2018-06-13T00:52:21.770Z,9.25
2018-06-13T00:58:16.875Z,11.89
2018-06-13T01:04:11.830Z,11.27
2018-06-13T01:10:06.784Z,12.23
2018-06-13T01:16:01.796Z,9.74
2018-06-13T01:21:56.777Z,12.81
2018-06-13T01:27:51.791Z,8.38
2018-06-13T01:33:46.813Z,9.73
2018-06-13T01:39:41.774Z,11.86
2018-06-13T01:45:36.793Z,12.37
2018-06-13T01:51:31.843Z,14.17
2018-06-13T01:57:26.787Z,13.83
2018-06-13T02:03:21.778Z,17.22
2018-06-13T02:09:16.877Z,10.32
2018-06-13T02:15:11.844Z,9.07
2018-06-13T02:21:06.907Z,14.19
2018-06-13T02:27:01.877Z,9.05
2018-06-13T02:32:56.788Z,13.13
2018-06-13T02:38:51.835Z,9
2018-06-13T02:44:46.879Z,13.64
2018-06-13T02:50:41.811Z,10.72
2018-06-13T02:56:36.866Z,7.98
2018-06-13T03:02:31.840Z,7.68
2018-06-13T03:08:26.819Z,8.99
2018-06-13T03:14:21.990Z,17.36
2018-06-13T03:20:16.827Z,18.88
2018-06-13T03:26:11.877Z,15.85
2018-06-13T03:32:06.891Z,14.88
2018-06-13T08:04:24.946Z,11.06
2018-06-13T08:10:19.960Z,8.33
2018-06-13T08:16:14.968Z,9.1
2018-06-13T08:22:09.933Z,6.42
2018-06-13T08:28:04.944Z,8.41
2018-06-13T08:33:59.963Z,7.52
2018-06-13T08:39:55.049Z,6.63
2018-06-13T08:45:49.955Z,7.61
2018-06-13T08:51:45.014Z,5
2018-06-13T08:57:39.972Z,4.66
2018-06-13T09:03:34.979Z,3.72
2018-06-13T09:09:29.968Z,5.98
2018-06-13T09:15:25.037Z,5.17
2018-06-13T09:21:19.984Z,4.86
2018-06-13T09:27:15.044Z,12.74
2018-06-13T09:33:10.021Z,5.09
2018-06-13T09:39:16.573Z,2.2
2018-06-13T09:46:22.103Z,2.13
2018-06-13T09:51:03.005Z,2.22
2018-06-13T09:56:50.127Z,4.37
2018-06-13T10:02:45.036Z,3.18
2018-06-13T10:08:40.087Z,2.23
2018-06-13T10:14:35.038Z,1.87
2018-06-13T10:20:30.075Z,2.16
2018-06-13T10:26:29.208Z,3.37
2018-06-13T10:32:30.220Z,2.5
2018-06-13T10:38:15.063Z,1.93
2018-06-13T10:44:10.117Z,2.3
2018-06-13T10:50:05.192Z,1.96
2018-06-13T10:56:07.541Z,1.01
2018-06-13T11:01:55.072Z,1.07
2018-06-13T11:07:50.062Z,1.49
2018-06-13T11:13:45.063Z,1.29
2018-06-13T11:19:40.069Z,1.27
2018-06-13T11:25:40.027Z,1.47
2018-06-13T11:31:30.150Z,4.39
2018-06-13T11:37:25.096Z,3.44
2018-06-13T11:43:20.138Z,1.17
2018-06-13T11:49:15.117Z,1.72
2018-06-13T11:55:10.118Z,1.66
2018-06-13T12:01:05.124Z,1.5
2018-06-13T12:07:00.127Z,1.72
2018-06-13T12:12:55.147Z,3.91
2018-06-13T12:18:50.717Z,1.6
2018-06-13T12:24:45.119Z,2.47
2018-06-13T12:30:44.280Z,1.42
2018-06-13T12:36:35.326Z,1.74
2018-06-13T12:42:55.184Z,1.2
2018-06-13T12:48:40.201Z,1.66
2018-06-13T12:54:31.254Z,2.91
2018-06-13T13:00:15.158Z,2.46
2018-06-13T13:06:10.144Z,2.13
2018-06-13T13:12:05.185Z,3.2
2018-06-13T13:18:00.427Z,1.76
2018-06-13T13:23:55.205Z,1.77
2018-06-13T13:29:50.211Z,1.25
2018-06-13T13:35:45.217Z,2.57
2018-06-13T13:41:44.952Z,1.99
2018-06-13T13:47:35.200Z,2.19
2018-06-13T13:53:30.208Z,3.15
2018-06-13T13:59:25.269Z,5.55
2018-06-13T14:05:20.242Z,2.9
2018-06-13T14:11:15.309Z,3.38
2018-06-13T14:17:10.259Z,4.72
2018-06-13T14:23:05.282Z,2.55
2018-06-13T14:29:00.253Z,1.98
2018-06-13T14:34:55.229Z,3.2
2018-06-13T14:40:50.284Z,8.09
2018-06-13T14:46:45.277Z,6.81
2018-06-13T14:52:40.285Z,2.63
2018-06-13T14:58:35.292Z,2.61
2018-06-13T15:04:30.241Z,4.24
2018-06-13T15:10:25.273Z,3.63
2018-06-13T15:16:20.278Z,6.51
2018-06-13T15:22:15.256Z,2.85
2018-06-13T15:28:10.326Z,5.92
2018-06-13T15:34:05.281Z,5.58
2018-06-13T15:40:00.326Z,3.13
2018-06-13T15:45:55.291Z,3.53
2018-06-13T15:51:50.313Z,5.1
2018-06-13T15:57:45.325Z,3.56
2018-06-13T16:03:40.407Z,2.68
2018-06-13T16:09:35.353Z,3.02
2018-06-13T16:15:30.308Z,3.58
2018-06-13T16:21:25.301Z,6.88
2018-06-13T16:27:20.351Z,6.36
2018-06-13T16:33:15.368Z,3.75
2018-06-13T16:39:10.345Z,3.02
2018-06-13T16:45:05.389Z,3.65
2018-06-13T16:51:00.370Z,4.24
2018-06-13T16:56:55.321Z,7.21
2018-06-13T17:02:50.369Z,4.13
2018-06-13T17:08:45.362Z,3.36
2018-06-13T17:14:40.368Z,5.2
2018-06-13T17:20:35.408Z,4.81
2018-06-13T17:26:30.389Z,5.14
2018-06-13T17:32:25.390Z,6.05
2018-06-13T17:38:20.454Z,3.79
2018-06-13T17:44:15.365Z,4.5
2018-06-13T17:50:10.387Z,7.33
2018-06-13T17:56:05.373Z,6.95
2018-06-13T18:02:00.376Z,4.34
2018-06-13T18:07:55.437Z,5.73
2018-06-13T18:13:50.421Z,8.27
2018-06-13T18:19:45.404Z,6.72
2018-06-13T18:25:40.416Z,5.24
2018-06-13T18:31:35.432Z,6.85
2018-06-13T18:37:30.415Z,3.98
2018-06-13T18:43:25.454Z,5.6
2018-06-13T18:49:20.428Z,6.47
2018-06-13T18:55:15.401Z,6
2018-06-13T19:01:10.596Z,3.77
2018-06-13T19:07:05.546Z,2.95
2018-06-13T19:13:05.513Z,8.7
2018-06-13T19:18:55.450Z,3.16
2018-06-13T19:24:50.476Z,7.89
2018-06-13T19:30:45.478Z,8.66
2018-06-13T19:36:40.602Z,4.01
2018-06-13T19:42:35.522Z,5.18
2018-06-13T19:48:30.604Z,10.15
2018-06-13T19:54:25.637Z,7.84
2018-06-13T20:00:20.554Z,4.18
2018-06-13T20:06:15.508Z,8.04
2018-06-13T20:12:10.515Z,4.08
2018-06-13T20:18:05.515Z,4.43
2018-06-13T20:24:00.514Z,9.07
2018-06-13T20:29:55.690Z,5.7
2018-06-13T20:35:56.576Z,5.79
2018-06-13T20:42:48.631Z,10.53
2018-06-13T20:47:40.548Z,7.64
2018-06-13T20:53:39.637Z,10.23
2018-06-13T20:59:35.647Z,8.03
2018-06-13T21:05:25.562Z,4.46
2018-06-13T21:11:21.666Z,11.81
2018-06-13T21:17:21.658Z,5.94
2018-06-13T21:23:18.772Z,8.96
2018-06-13T21:29:05.554Z,7.51
2018-06-13T21:35:04.674Z,7.53
2018-06-13T21:41:28.395Z,9.06
2018-06-13T21:46:53.604Z,7.09
2018-06-13T21:59:16.519Z,5.56
2018-06-13T22:04:39.652Z,4.35
2018-06-13T22:10:38.277Z,6.49
2018-06-13T22:16:30.738Z,7.16
2018-06-13T22:22:21.776Z,10.57
2018-06-13T22:28:15.703Z,6.1
2018-06-13T22:34:10.667Z,8.77
2018-06-13T22:40:05.736Z,7
2018-06-13T22:46:00.658Z,4.3
2018-06-13T22:51:55.705Z,5.98
2018-06-13T22:57:50.690Z,5.88
2018-06-13T23:03:45.729Z,5.08
2018-06-13T23:09:40.619Z,7.73
2018-06-13T23:15:35.655Z,7.03
2018-06-13T23:21:30.662Z,5.54
2018-06-13T23:27:25.681Z,8.58
2018-06-13T23:33:20.671Z,4.34
2018-06-13T23:39:15.696Z,8.25
2018-06-13T23:45:10.740Z,11.54
2018-06-13T23:51:05.692Z,5.55
2018-06-13T23:57:00.702Z,10.22
